sensor_id;sensor_type;location;lat;lon;timestamp;pressure;altitude;pressure_sealevel;temperature
74533;BMP180;63012;51.096;-115.366;2022-10-16T00:02:03;87595.60;;;11.80
74533;BMP180;63012;51.096;-115.366;2022-10-16T00:04:30;87598.60;;;11.82
74533;BMP180;63012;51.096;-115.366;2022-10-16T00:06:57;87606.80;;;11.80
74533;BMP180;63012;51.096;-115.366;2022-10-16T00:09:24;87609.60;;;11.80
74533;BMP180;63012;51.096;-115.366;2022-10-16T00:11:51;87610.20;;;11.80
74533;BMP180;63012;51.096;-115.366;2022-10-16T00:14:17;87609.20;;;11.80
74533;BMP180;63012;51.096;-115.366;2022-10-16T00:16:44;87612.80;;;11.70
74533;BMP180;63012;51.096;-115.366;2022-10-16T00:19:12;87616.80;;;11.70
74533;BMP180;63012;51.096;-115.366;2022-10-16T00:21:39;87619.40;;;11.70
74533;BMP180;63012;51.096;-115.366;2022-10-16T00:24:09;87618.00;;;11.62
74533;BMP180;63012;51.096;-115.366;2022-10-16T00:26:38;87615.80;;;11.56
74533;BMP180;63012;51.096;-115.366;2022-10-16T00:29:06;87620.40;;;11.46
74533;BMP180;63012;51.096;-115.366;2022-10-16T00:31:34;87623.80;;;11.40
74533;BMP180;63012;51.096;-115.366;2022-10-16T00:34:01;87627.80;;;11.30
74533;BMP180;63012;51.096;-115.366;2022-10-16T00:36:28;87622.80;;;11.20
74533;BMP180;63012;51.096;-115.366;2022-10-16T00:38:57;87626.40;;;11.20
74533;BMP180;63012;51.096;-115.366;2022-10-16T00:41:28;87620.60;;;11.10
74533;BMP180;63012;51.096;-115.366;2022-10-16T00:43:59;87630.40;;;11.10
74533;BMP180;63012;51.096;-115.366;2022-10-16T00:46:38;87626.00;;;11.02
74533;BMP180;63012;51.096;-115.366;2022-10-16T00:49:15;87627.00;;;11.00
74533;BMP180;63012;51.096;-115.366;2022-10-16T00:51:47;87628.60;;;11.00
74533;BMP180;63012;51.096;-115.366;2022-10-16T00:54:27;87629.00;;;10.90
74533;BMP180;63012;51.096;-115.366;2022-10-16T00:56:57;87634.80;;;10.90
74533;BMP180;63012;51.096;-115.366;2022-10-16T00:59:35;87635.00;;;10.90
74533;BMP180;63012;51.096;-115.366;2022-10-16T01:02:05;87631.00;;;10.90
74533;BMP180;63012;51.096;-115.366;2022-10-16T01:04:38;87632.40;;;10.90
74533;BMP180;63012;51.096;-115.366;2022-10-16T01:10:32;87636.40;;;10.80
74533;BMP180;63012;51.096;-115.366;2022-10-16T01:13:11;87639.40;;;10.76
74533;BMP180;63012;51.096;-115.366;2022-10-16T01:16:05;87649.80;;;10.70
74533;BMP180;63012;51.096;-115.366;2022-10-16T01:18:44;87650.40;;;10.70
74533;BMP180;63012;51.096;-115.366;2022-10-16T01:21:19;87651.40;;;10.60
74533;BMP180;63012;51.096;-115.366;2022-10-16T01:27:09;87656.60;;;10.50
74533;BMP180;63012;51.096;-115.366;2022-10-16T01:32:36;87660.40;;;10.40
74533;BMP180;63012;51.096;-115.366;2022-10-16T01:35:27;87657.80;;;10.30
74533;BMP180;63012;51.096;-115.366;2022-10-16T01:41:35;87667.40;;;10.20
74533;BMP180;63012;51.096;-115.366;2022-10-16T01:44:08;87665.00;;;10.16
74533;BMP180;63012;51.096;-115.366;2022-10-16T01:46:41;87668.00;;;10.10
74533;BMP180;63012;51.096;-115.366;2022-10-16T01:49:11;87668.40;;;10.08
74533;BMP180;63012;51.096;-115.366;2022-10-16T01:51:39;87666.80;;;10.00
74533;BMP180;63012;51.096;-115.366;2022-10-16T01:54:09;87670.20;;;9.96
74533;BMP180;63012;51.096;-115.366;2022-10-16T01:56:39;87663.40;;;9.90
74533;BMP180;63012;51.096;-115.366;2022-10-16T01:59:24;87661.60;;;9.80
74533;BMP180;63012;51.096;-115.366;2022-10-16T02:01:58;87666.40;;;9.70
74533;BMP180;63012;51.096;-115.366;2022-10-16T02:07:05;87668.80;;;9.60
74533;BMP180;63012;51.096;-115.366;2022-10-16T02:09:35;87671.20;;;9.50
74533;BMP180;63012;51.096;-115.366;2022-10-16T02:12:23;87678.00;;;9.50
74533;BMP180;63012;51.096;-115.366;2022-10-16T02:14:52;87685.40;;;9.40
74533;BMP180;63012;51.096;-115.366;2022-10-16T02:17:20;87686.60;;;9.30
74533;BMP180;63012;51.096;-115.366;2022-10-16T02:19:52;87692.40;;;9.30
74533;BMP180;63012;51.096;-115.366;2022-10-16T02:22:35;87692.00;;;9.22
74533;BMP180;63012;51.096;-115.366;2022-10-16T02:25:35;87696.00;;;9.20
74533;BMP180;63012;51.096;-115.366;2022-10-16T02:28:12;87696.80;;;9.12
74533;BMP180;63012;51.096;-115.366;2022-10-16T02:31:03;87706.80;;;9.10
74533;BMP180;63012;51.096;-115.366;2022-10-16T03:13:25;87745.20;;;8.30
74533;BMP180;63012;51.096;-115.366;2022-10-16T03:15:51;87748.60;;;8.30
74533;BMP180;63012;51.096;-115.366;2022-10-16T03:18:19;87755.20;;;8.30
74533;BMP180;63012;51.096;-115.366;2022-10-16T03:20:46;87750.60;;;8.20
74533;BMP180;63012;51.096;-115.366;2022-10-16T03:23:13;87757.40;;;8.10
74533;BMP180;63012;51.096;-115.366;2022-10-16T03:25:40;87763.20;;;8.04
74533;BMP180;63012;51.096;-115.366;2022-10-16T03:28:07;87769.20;;;7.98
74533;BMP180;63012;51.096;-115.366;2022-10-16T03:30:34;87772.00;;;7.90
74533;BMP180;63012;51.096;-115.366;2022-10-16T03:33:01;87769.40;;;7.80
74533;BMP180;63012;51.096;-115.366;2022-10-16T03:35:28;87760.80;;;7.76
74533;BMP180;63012;51.096;-115.366;2022-10-16T03:37:56;87770.80;;;7.70
74533;BMP180;63012;51.096;-115.366;2022-10-16T03:40:23;87769.20;;;7.60
74533;BMP180;63012;51.096;-115.366;2022-10-16T03:42:50;87769.40;;;7.50
74533;BMP180;63012;51.096;-115.366;2022-10-16T03:45:17;87768.00;;;7.40
74533;BMP180;63012;51.096;-115.366;2022-10-16T03:47:44;87776.80;;;7.30
74533;BMP180;63012;51.096;-115.366;2022-10-16T03:50:11;87774.40;;;7.20
74533;BMP180;63012;51.096;-115.366;2022-10-16T03:52:38;87768.20;;;7.10
74533;BMP180;63012;51.096;-115.366;2022-10-16T03:55:05;87774.60;;;7.00
74533;BMP180;63012;51.096;-115.366;2022-10-16T03:57:33;87776.00;;;6.90
74533;BMP180;63012;51.096;-115.366;2022-10-16T04:00:00;87781.20;;;6.90
74533;BMP180;63012;51.096;-115.366;2022-10-16T04:02:27;87782.60;;;6.84
74533;BMP180;63012;51.096;-115.366;2022-10-16T04:04:54;87784.00;;;6.80
74533;BMP180;63012;51.096;-115.366;2022-10-16T04:07:21;87784.60;;;6.84
74533;BMP180;63012;51.096;-115.366;2022-10-16T04:09:48;87784.60;;;6.80
74533;BMP180;63012;51.096;-115.366;2022-10-16T04:12:15;87785.40;;;6.80
74533;BMP180;63012;51.096;-115.366;2022-10-16T04:14:42;87790.40;;;6.80
74533;BMP180;63012;51.096;-115.366;2022-10-16T04:17:09;87795.40;;;6.80
74533;BMP180;63012;51.096;-115.366;2022-10-16T04:19:36;87793.20;;;6.80
74533;BMP180;63012;51.096;-115.366;2022-10-16T04:22:03;87793.60;;;6.70
74533;BMP180;63012;51.096;-115.366;2022-10-16T04:24:30;87796.60;;;6.60
74533;BMP180;63012;51.096;-115.366;2022-10-16T04:26:57;87796.40;;;6.50
74533;BMP180;63012;51.096;-115.366;2022-10-16T04:29:25;87796.40;;;6.30
74533;BMP180;63012;51.096;-115.366;2022-10-16T04:31:51;87800.60;;;6.20
74533;BMP180;63012;51.096;-115.366;2022-10-16T04:34:19;87798.60;;;6.08
74533;BMP180;63012;51.096;-115.366;2022-10-16T04:36:48;87803.40;;;5.94
74533;BMP180;63012;51.096;-115.366;2022-10-16T04:39:18;87802.20;;;5.90
74533;BMP180;63012;51.096;-115.366;2022-10-16T04:41:45;87805.80;;;5.80
74533;BMP180;63012;51.096;-115.366;2022-10-16T04:44:12;87806.40;;;5.80
74533;BMP180;63012;51.096;-115.366;2022-10-16T04:46:39;87807.40;;;5.76
74533;BMP180;63012;51.096;-115.366;2022-10-16T04:49:06;87810.60;;;5.70
74533;BMP180;63012;51.096;-115.366;2022-10-16T04:51:34;87811.20;;;5.70
74533;BMP180;63012;51.096;-115.366;2022-10-16T04:54:01;87801.40;;;5.60
74533;BMP180;63012;51.096;-115.366;2022-10-16T04:56:28;87799.00;;;5.60
74533;BMP180;63012;51.096;-115.366;2022-10-16T04:58:54;87802.40;;;5.60
74533;BMP180;63012;51.096;-115.366;2022-10-16T05:01:21;87811.80;;;5.60
74533;BMP180;63012;51.096;-115.366;2022-10-16T05:03:49;87808.80;;;5.50
74533;BMP180;63012;51.096;-115.366;2022-10-16T05:06:16;87812.60;;;5.40
74533;BMP180;63012;51.096;-115.366;2022-10-16T05:08:43;87819.40;;;5.30
74533;BMP180;63012;51.096;-115.366;2022-10-16T05:11:10;87811.20;;;5.30
74533;BMP180;63012;51.096;-115.366;2022-10-16T05:13:37;87812.60;;;5.28
74533;BMP180;63012;51.096;-115.366;2022-10-16T05:16:04;87807.00;;;5.20
74533;BMP180;63012;51.096;-115.366;2022-10-16T05:18:31;87808.40;;;5.20
74533;BMP180;63012;51.096;-115.366;2022-10-16T05:20:58;87806.80;;;5.10
74533;BMP180;63012;51.096;-115.366;2022-10-16T05:23:25;87803.20;;;5.10
74533;BMP180;63012;51.096;-115.366;2022-10-16T05:25:57;87806.40;;;5.10
74533;BMP180;63012;51.096;-115.366;2022-10-16T05:28:29;87810.00;;;5.00
74533;BMP180;63012;51.096;-115.366;2022-10-16T05:30:57;87809.80;;;5.00
74533;BMP180;63012;51.096;-115.366;2022-10-16T05:33:26;87812.00;;;5.00
74533;BMP180;63012;51.096;-115.366;2022-10-16T05:35:53;87817.60;;;5.00
74533;BMP180;63012;51.096;-115.366;2022-10-16T05:38:20;87815.80;;;5.10
74533;BMP180;63012;51.096;-115.366;2022-10-16T05:40:53;87819.20;;;5.10
74533;BMP180;63012;51.096;-115.366;2022-10-16T05:43:20;87810.20;;;5.08
74533;BMP180;63012;51.096;-115.366;2022-10-16T05:45:59;87818.40;;;5.00
74533;BMP180;63012;51.096;-115.366;2022-10-16T05:48:27;87824.40;;;5.00
74533;BMP180;63012;51.096;-115.366;2022-10-16T05:51:01;87823.80;;;4.92
74533;BMP180;63012;51.096;-115.366;2022-10-16T05:53:31;87824.20;;;4.90
74533;BMP180;63012;51.096;-115.366;2022-10-16T05:55:59;87830.60;;;4.90
74533;BMP180;63012;51.096;-115.366;2022-10-16T05:58:32;87823.00;;;4.80
74533;BMP180;63012;51.096;-115.366;2022-10-16T06:01:07;87831.20;;;4.72
74533;BMP180;63012;51.096;-115.366;2022-10-16T06:03:34;87826.00;;;4.70
74533;BMP180;63012;51.096;-115.366;2022-10-16T06:06:24;87834.80;;;4.70
74533;BMP180;63012;51.096;-115.366;2022-10-16T06:08:56;87838.80;;;4.70
74533;BMP180;63012;51.096;-115.366;2022-10-16T06:11:29;87844.60;;;4.70
74533;BMP180;63012;51.096;-115.366;2022-10-16T06:14:00;87843.60;;;4.70
74533;BMP180;63012;51.096;-115.366;2022-10-16T06:16:37;87844.60;;;4.70
74533;BMP180;63012;51.096;-115.366;2022-10-16T06:19:04;87842.20;;;4.60
74533;BMP180;63012;51.096;-115.366;2022-10-16T06:21:35;87853.80;;;4.60
74533;BMP180;63012;51.096;-115.366;2022-10-16T06:24:03;87850.00;;;4.60
74533;BMP180;63012;51.096;-115.366;2022-10-16T06:26:31;87849.00;;;4.60
74533;BMP180;63012;51.096;-115.366;2022-10-16T06:29:00;87850.40;;;4.50
74533;BMP180;63012;51.096;-115.366;2022-10-16T06:31:28;87853.40;;;4.42
74533;BMP180;63012;51.096;-115.366;2022-10-16T06:33:58;87854.00;;;4.40
74533;BMP180;63012;51.096;-115.366;2022-10-16T06:36:26;87853.40;;;4.40
74533;BMP180;63012;51.096;-115.366;2022-10-16T06:38:53;87865.40;;;4.40
74533;BMP180;63012;51.096;-115.366;2022-10-16T06:41:22;87861.60;;;4.40
74533;BMP180;63012;51.096;-115.366;2022-10-16T06:43:49;87863.60;;;4.50
74533;BMP180;63012;51.096;-115.366;2022-10-16T06:46:20;87863.00;;;4.50
74533;BMP180;63012;51.096;-115.366;2022-10-16T06:48:47;87864.40;;;4.50
74533;BMP180;63012;51.096;-115.366;2022-10-16T06:51:18;87864.80;;;4.50
74533;BMP180;63012;51.096;-115.366;2022-10-16T06:53:52;87865.60;;;4.50
74533;BMP180;63012;51.096;-115.366;2022-10-16T06:56:23;87868.20;;;4.50
74533;BMP180;63012;51.096;-115.366;2022-10-16T06:58:51;87868.20;;;4.40
74533;BMP180;63012;51.096;-115.366;2022-10-16T07:01:22;87870.00;;;4.40
74533;BMP180;63012;51.096;-115.366;2022-10-16T07:03:50;87861.80;;;4.40
74533;BMP180;63012;51.096;-115.366;2022-10-16T07:06:22;87864.80;;;4.40
74533;BMP180;63012;51.096;-115.366;2022-10-16T07:08:49;87864.40;;;4.40
74533;BMP180;63012;51.096;-115.366;2022-10-16T07:11:20;87869.20;;;4.40
74533;BMP180;63012;51.096;-115.366;2022-10-16T07:13:50;87866.00;;;4.50
74533;BMP180;63012;51.096;-115.366;2022-10-16T07:16:20;87874.60;;;4.50
74533;BMP180;63012;51.096;-115.366;2022-10-16T07:18:47;87867.00;;;4.40
74533;BMP180;63012;51.096;-115.366;2022-10-16T07:21:18;87870.00;;;4.40
74533;BMP180;63012;51.096;-115.366;2022-10-16T07:23:51;87871.20;;;4.40
74533;BMP180;63012;51.096;-115.366;2022-10-16T07:26:19;87872.20;;;4.40
74533;BMP180;63012;51.096;-115.366;2022-10-16T07:28:46;87875.40;;;4.30
74533;BMP180;63012;51.096;-115.366;2022-10-16T07:31:15;87876.80;;;4.28
74533;BMP180;63012;51.096;-115.366;2022-10-16T07:33:44;87877.00;;;4.20
74533;BMP180;63012;51.096;-115.366;2022-10-16T07:36:12;87873.40;;;4.16
74533;BMP180;63012;51.096;-115.366;2022-10-16T07:38:40;87874.20;;;4.10
74533;BMP180;63012;51.096;-115.366;2022-10-16T07:41:12;87871.20;;;4.10
74533;BMP180;63012;51.096;-115.366;2022-10-16T07:43:40;87869.40;;;4.10
74533;BMP180;63012;51.096;-115.366;2022-10-16T07:46:07;87868.00;;;4.20
74533;BMP180;63012;51.096;-115.366;2022-10-16T07:48:35;87868.60;;;4.20
74533;BMP180;63012;51.096;-115.366;2022-10-16T07:51:06;87867.20;;;4.20
74533;BMP180;63012;51.096;-115.366;2022-10-16T07:53:34;87866.40;;;4.20
74533;BMP180;63012;51.096;-115.366;2022-10-16T07:56:05;87861.80;;;4.20
74533;BMP180;63012;51.096;-115.366;2022-10-16T07:58:34;87863.20;;;4.20
74533;BMP180;63012;51.096;-115.366;2022-10-16T08:01:08;87867.00;;;4.20
74533;BMP180;63012;51.096;-115.366;2022-10-16T08:03:35;87862.80;;;4.20
74533;BMP180;63012;51.096;-115.366;2022-10-16T08:06:03;87858.80;;;4.20
74533;BMP180;63012;51.096;-115.366;2022-10-16T08:08:31;87860.00;;;4.20
74533;BMP180;63012;51.096;-115.366;2022-10-16T08:10:58;87865.60;;;4.20
74533;BMP180;63012;51.096;-115.366;2022-10-16T08:13:25;87871.40;;;4.20
74533;BMP180;63012;51.096;-115.366;2022-10-16T08:15:54;87868.20;;;4.20
74533;BMP180;63012;51.096;-115.366;2022-10-16T08:18:22;87865.80;;;4.20
74533;BMP180;63012;51.096;-115.366;2022-10-16T08:20:59;87869.20;;;4.20
74533;BMP180;63012;51.096;-115.366;2022-10-16T08:23:28;87867.80;;;4.20
74533;BMP180;63012;51.096;-115.366;2022-10-16T08:26:01;87868.00;;;4.20
74533;BMP180;63012;51.096;-115.366;2022-10-16T08:28:28;87874.20;;;4.22
74533;BMP180;63012;51.096;-115.366;2022-10-16T08:30:55;87879.80;;;4.30
74533;BMP180;63012;51.096;-115.366;2022-10-16T08:33:26;87877.00;;;4.30
74533;BMP180;63012;51.096;-115.366;2022-10-16T08:35:53;87877.80;;;4.30
74533;BMP180;63012;51.096;-115.366;2022-10-16T08:38:21;87874.40;;;4.30
74533;BMP180;63012;51.096;-115.366;2022-10-16T08:40:48;87875.40;;;4.22
74533;BMP180;63012;51.096;-115.366;2022-10-16T08:46:55;87881.20;;;4.10
74533;BMP180;63012;51.096;-115.366;2022-10-16T08:49:23;87885.80;;;4.10
74533;BMP180;63012;51.096;-115.366;2022-10-16T08:51:51;87883.60;;;4.10
74533;BMP180;63012;51.096;-115.366;2022-10-16T08:54:31;87882.00;;;4.10
74533;BMP180;63012;51.096;-115.366;2022-10-16T08:57:16;87879.80;;;4.10
74533;BMP180;63012;51.096;-115.366;2022-10-16T08:59:44;87883.60;;;4.20
74533;BMP180;63012;51.096;-115.366;2022-10-16T09:08:29;87884.80;;;4.28
74533;BMP180;63012;51.096;-115.366;2022-10-16T09:11:09;87886.60;;;4.26
74533;BMP180;63012;51.096;-115.366;2022-10-16T09:13:57;87890.00;;;4.20
74533;BMP180;63012;51.096;-115.366;2022-10-16T09:16:57;87885.20;;;4.20
74533;BMP180;63012;51.096;-115.366;2022-10-16T09:19:40;87884.20;;;4.12
74533;BMP180;63012;51.096;-115.366;2022-10-16T09:22:15;87889.60;;;4.10
74533;BMP180;63012;51.096;-115.366;2022-10-16T09:24:43;87886.80;;;4.10
74533;BMP180;63012;51.096;-115.366;2022-10-16T09:27:15;87882.60;;;4.10
74533;BMP180;63012;51.096;-115.366;2022-10-16T09:29:42;87881.80;;;4.06
74533;BMP180;63012;51.096;-115.366;2022-10-16T09:32:20;87881.80;;;4.00
74533;BMP180;63012;51.096;-115.366;2022-10-16T09:34:55;87882.20;;;4.00
74533;BMP180;63012;51.096;-115.366;2022-10-16T09:37:25;87880.00;;;4.00
74533;BMP180;63012;51.096;-115.366;2022-10-16T09:39:54;87881.40;;;4.04
74533;BMP180;63012;51.096;-115.366;2022-10-16T09:42:32;87883.60;;;4.06
74533;BMP180;63012;51.096;-115.366;2022-10-16T09:45:02;87889.20;;;4.10
74533;BMP180;63012;51.096;-115.366;2022-10-16T09:47:31;87877.20;;;4.04
74533;BMP180;63012;51.096;-115.366;2022-10-16T09:50:25;87878.60;;;4.00
74533;BMP180;63012;51.096;-115.366;2022-10-16T09:53:19;87872.20;;;4.00
74533;BMP180;63012;51.096;-115.366;2022-10-16T09:55:53;87875.20;;;3.90
74533;BMP180;63012;51.096;-115.366;2022-10-16T09:58:24;87881.00;;;3.90
74533;BMP180;63012;51.096;-115.366;2022-10-16T10:00:54;87870.60;;;3.80
74533;BMP180;63012;51.096;-115.366;2022-10-16T10:03:39;87873.80;;;3.80
74533;BMP180;63012;51.096;-115.366;2022-10-16T10:06:28;87871.80;;;3.80
74533;BMP180;63012;51.096;-115.366;2022-10-16T10:09:05;87871.00;;;3.70
74533;BMP180;63012;51.096;-115.366;2022-10-16T10:14:30;87873.20;;;3.70
74533;BMP180;63012;51.096;-115.366;2022-10-16T10:17:27;87876.00;;;3.70
74533;BMP180;63012;51.096;-115.366;2022-10-16T10:20:00;87871.40;;;3.70
74533;BMP180;63012;51.096;-115.366;2022-10-16T10:22:46;87872.40;;;3.70
74533;BMP180;63012;51.096;-115.366;2022-10-16T10:33:59;87866.40;;;3.60
74533;BMP180;63012;51.096;-115.366;2022-10-16T10:36:41;87856.40;;;3.60
74533;BMP180;63012;51.096;-115.366;2022-10-16T10:39:36;87856.80;;;3.58
74533;BMP180;63012;51.096;-115.366;2022-10-16T10:42:34;87860.00;;;3.50
74533;BMP180;63012;51.096;-115.366;2022-10-16T10:45:14;87861.20;;;3.50
74533;BMP180;63012;51.096;-115.366;2022-10-16T10:48:18;87855.40;;;3.50
74533;BMP180;63012;51.096;-115.366;2022-10-16T10:51:10;87860.20;;;3.56
74533;BMP180;63012;51.096;-115.366;2022-10-16T10:54:24;87854.00;;;3.50
74533;BMP180;63012;51.096;-115.366;2022-10-16T10:59:56;87856.40;;;3.50
74533;BMP180;63012;51.096;-115.366;2022-10-16T11:08:02;87857.20;;;3.40
74533;BMP180;63012;51.096;-115.366;2022-10-16T11:15:57;87852.60;;;3.50
74533;BMP180;63012;51.096;-115.366;2022-10-16T11:21:14;87852.40;;;3.52
74533;BMP180;63012;51.096;-115.366;2022-10-16T11:23:59;87848.60;;;3.60
74533;BMP180;63012;51.096;-115.366;2022-10-16T11:26:34;87846.40;;;3.58
74533;BMP180;63012;51.096;-115.366;2022-10-16T11:29:14;87843.00;;;3.52
74533;BMP180;63012;51.096;-115.366;2022-10-16T11:31:53;87843.80;;;3.50
74533;BMP180;63012;51.096;-115.366;2022-10-16T11:34:23;87844.40;;;3.50
74533;BMP180;63012;51.096;-115.366;2022-10-16T11:40:30;87836.60;;;3.50
74533;BMP180;63012;51.096;-115.366;2022-10-16T11:43:26;87838.60;;;3.50
74533;BMP180;63012;51.096;-115.366;2022-10-16T11:45:58;87828.40;;;3.50
74533;BMP180;63012;51.096;-115.366;2022-10-16T11:48:46;87824.80;;;3.50
74533;BMP180;63012;51.096;-115.366;2022-10-16T11:51:38;87829.00;;;3.50
74533;BMP180;63012;51.096;-115.366;2022-10-16T11:54:38;87827.60;;;3.50
74533;BMP180;63012;51.096;-115.366;2022-10-16T11:57:42;87827.00;;;3.50
74533;BMP180;63012;51.096;-115.366;2022-10-16T12:00:30;87827.60;;;3.50
74533;BMP180;63012;51.096;-115.366;2022-10-16T12:03:34;87823.60;;;3.46
74533;BMP180;63012;51.096;-115.366;2022-10-16T12:06:30;87826.60;;;3.40
74533;BMP180;63012;51.096;-115.366;2022-10-16T12:09:01;87834.80;;;3.40
74533;BMP180;63012;51.096;-115.366;2022-10-16T12:20:24;87831.80;;;3.20
74533;BMP180;63012;51.096;-115.366;2022-10-16T12:25:32;87827.60;;;3.20
74533;BMP180;63012;51.096;-115.366;2022-10-16T12:28:05;87822.60;;;3.20
74533;BMP180;63012;51.096;-115.366;2022-10-16T12:30:36;87822.80;;;3.20
74533;BMP180;63012;51.096;-115.366;2022-10-16T12:33:19;87824.60;;;3.12
74533;BMP180;63012;51.096;-115.366;2022-10-16T12:35:48;87830.20;;;3.10
74533;BMP180;63012;51.096;-115.366;2022-10-16T12:38:21;87825.00;;;3.10
74533;BMP180;63012;51.096;-115.366;2022-10-16T12:41:05;87827.60;;;3.10
74533;BMP180;63012;51.096;-115.366;2022-10-16T12:43:44;87829.20;;;3.00
74533;BMP180;63012;51.096;-115.366;2022-10-16T12:48:43;87829.40;;;2.90
74533;BMP180;63012;51.096;-115.366;2022-10-16T12:51:23;87825.80;;;3.00
74533;BMP180;63012;51.096;-115.366;2022-10-16T12:54:04;87831.60;;;3.00
74533;BMP180;63012;51.096;-115.366;2022-10-16T12:57:00;87843.00;;;3.00
74533;BMP180;63012;51.096;-115.366;2022-10-16T12:59:52;87839.80;;;3.00
74533;BMP180;63012;51.096;-115.366;2022-10-16T13:09:08;87843.60;;;2.90
74533;BMP180;63012;51.096;-115.366;2022-10-16T13:12:25;87843.20;;;2.90
74533;BMP180;63012;51.096;-115.366;2022-10-16T13:26:34;87822.60;;;2.90
74533;BMP180;63012;51.096;-115.366;2022-10-16T13:29:05;87815.40;;;2.90
74533;BMP180;63012;51.096;-115.366;2022-10-16T13:31:33;87819.40;;;2.90
74533;BMP180;63012;51.096;-115.366;2022-10-16T13:34:01;87814.40;;;2.90
74533;BMP180;63012;51.096;-115.366;2022-10-16T13:36:44;87820.80;;;2.90
74533;BMP180;63012;51.096;-115.366;2022-10-16T13:39:30;87811.80;;;2.90
74533;BMP180;63012;51.096;-115.366;2022-10-16T13:42:26;87805.60;;;2.90
74533;BMP180;63012;51.096;-115.366;2022-10-16T13:44:56;87801.80;;;3.00
74533;BMP180;63012;51.096;-115.366;2022-10-16T13:47:27;87798.20;;;3.00
74533;BMP180;63012;51.096;-115.366;2022-10-16T13:50:14;87801.00;;;3.04
74533;BMP180;63012;51.096;-115.366;2022-10-16T13:52:42;87802.20;;;3.08
74533;BMP180;63012;51.096;-115.366;2022-10-16T13:55:15;87806.00;;;3.04
74533;BMP180;63012;51.096;-115.366;2022-10-16T13:57:43;87796.20;;;3.02
74533;BMP180;63012;51.096;-115.366;2022-10-16T14:00:26;87799.40;;;3.02
74533;BMP180;63012;51.096;-115.366;2022-10-16T14:03:15;87802.80;;;3.00
74533;BMP180;63012;51.096;-115.366;2022-10-16T14:06:16;87805.00;;;3.00
74533;BMP180;63012;51.096;-115.366;2022-10-16T14:08:52;87796.80;;;3.00
74533;BMP180;63012;51.096;-115.366;2022-10-16T14:11:24;87793.40;;;3.04
74533;BMP180;63012;51.096;-115.366;2022-10-16T14:13:53;87799.20;;;3.06
74533;BMP180;63012;51.096;-115.366;2022-10-16T14:16:30;87792.00;;;3.10
74533;BMP180;63012;51.096;-115.366;2022-10-16T14:19:05;87790.40;;;3.10
74533;BMP180;63012;51.096;-115.366;2022-10-16T14:21:34;87789.80;;;3.10
74533;BMP180;63012;51.096;-115.366;2022-10-16T14:24:12;87798.00;;;3.10
74533;BMP180;63012;51.096;-115.366;2022-10-16T14:26:45;87798.20;;;3.10
74533;BMP180;63012;51.096;-115.366;2022-10-16T14:29:18;87806.20;;;3.10
74533;BMP180;63012;51.096;-115.366;2022-10-16T14:32:22;87801.20;;;3.10
74533;BMP180;63012;51.096;-115.366;2022-10-16T14:34:54;87806.20;;;3.10
74533;BMP180;63012;51.096;-115.366;2022-10-16T14:37:29;87803.20;;;3.10
74533;BMP180;63012;51.096;-115.366;2022-10-16T14:39:56;87806.80;;;3.10
74533;BMP180;63012;51.096;-115.366;2022-10-16T14:42:25;87808.20;;;3.10
74533;BMP180;63012;51.096;-115.366;2022-10-16T14:44:54;87811.80;;;3.10
74533;BMP180;63012;51.096;-115.366;2022-10-16T14:47:25;87814.00;;;3.10
74533;BMP180;63012;51.096;-115.366;2022-10-16T14:49:54;87814.40;;;3.10
74533;BMP180;63012;51.096;-115.366;2022-10-16T14:52:25;87815.20;;;3.10
74533;BMP180;63012;51.096;-115.366;2022-10-16T14:54:52;87812.20;;;3.10
74533;BMP180;63012;51.096;-115.366;2022-10-16T14:57:31;87818.40;;;3.08
74533;BMP180;63012;51.096;-115.366;2022-10-16T15:00:00;87819.80;;;3.00
74533;BMP180;63012;51.096;-115.366;2022-10-16T15:02:35;87819.60;;;3.00
74533;BMP180;63012;51.096;-115.366;2022-10-16T15:05:18;87827.40;;;3.06
74533;BMP180;63012;51.096;-115.366;2022-10-16T15:07:46;87830.80;;;3.10
74533;BMP180;63012;51.096;-115.366;2022-10-16T15:10:14;87828.40;;;3.10
74533;BMP180;63012;51.096;-115.366;2022-10-16T15:12:42;87834.20;;;3.10
74533;BMP180;63012;51.096;-115.366;2022-10-16T15:15:43;87842.80;;;3.10
74533;BMP180;63012;51.096;-115.366;2022-10-16T15:18:11;87849.00;;;3.10
74533;BMP180;63012;51.096;-115.366;2022-10-16T15:20:41;87854.60;;;3.10
74533;BMP180;63012;51.096;-115.366;2022-10-16T15:23:16;87854.00;;;3.02
74533;BMP180;63012;51.096;-115.366;2022-10-16T15:25:48;87860.60;;;3.02
74533;BMP180;63012;51.096;-115.366;2022-10-16T15:28:17;87870.00;;;3.00
74533;BMP180;63012;51.096;-115.366;2022-10-16T15:30:46;87866.80;;;3.00
74533;BMP180;63012;51.096;-115.366;2022-10-16T15:33:18;87867.40;;;3.00
74533;BMP180;63012;51.096;-115.366;2022-10-16T15:35:51;87865.80;;;3.04
74533;BMP180;63012;51.096;-115.366;2022-10-16T15:38:21;87864.40;;;3.02
74533;BMP180;63012;51.096;-115.366;2022-10-16T15:40:49;87861.80;;;3.10
74533;BMP180;63012;51.096;-115.366;2022-10-16T15:43:16;87859.60;;;3.10
74533;BMP180;63012;51.096;-115.366;2022-10-16T15:46:01;87855.00;;;3.20
74533;BMP180;63012;51.096;-115.366;2022-10-16T15:48:30;87846.40;;;3.20
74533;BMP180;63012;51.096;-115.366;2022-10-16T15:50:57;87848.80;;;3.20
74533;BMP180;63012;51.096;-115.366;2022-10-16T15:53:24;87851.60;;;3.20
74533;BMP180;63012;51.096;-115.366;2022-10-16T15:55:54;87847.80;;;3.20
74533;BMP180;63012;51.096;-115.366;2022-10-16T15:58:20;87846.60;;;3.30
74533;BMP180;63012;51.096;-115.366;2022-10-16T16:00:56;87851.80;;;3.30
74533;BMP180;63012;51.096;-115.366;2022-10-16T16:03:24;87847.80;;;3.30
74533;BMP180;63012;51.096;-115.366;2022-10-16T16:05:51;87851.60;;;3.30
74533;BMP180;63012;51.096;-115.366;2022-10-16T16:08:17;87841.20;;;3.30
74533;BMP180;63012;51.096;-115.366;2022-10-16T16:10:44;87837.60;;;3.40
74533;BMP180;63012;51.096;-115.366;2022-10-16T16:13:12;87840.20;;;3.40
74533;BMP180;63012;51.096;-115.366;2022-10-16T16:15:40;87841.20;;;3.42
74533;BMP180;63012;51.096;-115.366;2022-10-16T16:18:07;87843.20;;;3.50
74533;BMP180;63012;51.096;-115.366;2022-10-16T16:20:35;87834.60;;;3.50
74533;BMP180;63012;51.096;-115.366;2022-10-16T16:23:02;87841.60;;;3.60
74533;BMP180;63012;51.096;-115.366;2022-10-16T16:25:29;87831.40;;;3.68
74533;BMP180;63012;51.096;-115.366;2022-10-16T16:27:57;87835.00;;;3.80